Time;durP1;ratioP1;P1;durP2;ratioP2;P2;SDS_P1;SDS_P2;PMS_P1;PMS_P2;Temp;Humidity;BMP_temperature;BMP_pressure;BME280_temperature;BME280_humidity;BME280_pressure;Samples;Min_cycle;Max_cycle;Signal;HPM_P1;HPM_P2
2023/02/12 00:00:33;;;;;;;65.00;32.53;;;;;;;;;;5034012;28;20942;-46
2023/02/12 00:02:59;;;;;;;74.53;30.63;;;;;;;;;;5033731;28;20425;-46
2023/02/12 00:05:25;;;;;;;79.63;34.07;;;;;;;;;;5032930;28;20414;-46
2023/02/12 00:07:52;;;;;;;65.03;30.07;;;;;;;;;;5033480;28;20475;-45
2023/02/12 00:10:18;;;;;;;72.07;32.63;;;;;;;;;;5033945;28;20503;-47
2023/02/12 00:12:44;;;;;;;68.70;29.53;;;;;;;;;;5056903;22;20485;-46
2023/02/12 00:15:10;;;;;;;72.07;31.33;;;;;;;;;;5033875;28;20475;-46
2023/02/12 00:17:36;;;;;;;75.03;32.70;;;;;;;;;;5034510;28;20420;-46
2023/02/12 00:20:03;;;;;;;67.73;29.93;;;;;;;;;;5034854;28;20417;-45
2023/02/12 00:22:29;;;;;;;71.07;33.00;;;;;;;;;;5034903;28;20851;-45
2023/02/12 00:24:55;;;;;;;65.00;30.20;;;;;;;;;;5033976;28;20414;-46
2023/02/12 00:27:21;;;;;;;62.37;29.70;;;;;;;;;;5034523;28;20952;-46
2023/02/12 00:29:47;;;;;;;73.00;32.10;;;;;;;;;;5034697;28;20438;-46
2023/02/12 00:32:18;;;;;;;71.37;32.07;;;;;;;;;;5034027;28;20438;-46
2023/02/12 00:34:44;;;;;;;65.07;31.90;;;;;;;;;;5027920;28;20463;-45
2023/02/12 00:37:10;;;;;;;66.20;32.50;;;;;;;;;;5034166;28;20445;-46
2023/02/12 00:39:36;;;;;;;64.13;31.23;;;;;;;;;;5034519;28;20425;-45
2023/02/12 00:42:02;;;;;;;66.30;29.20;;;;;;;;;;5033933;28;20434;-46
2023/02/12 00:44:28;;;;;;;66.03;29.73;;;;;;;;;;5033399;28;20505;-46
2023/02/12 00:46:55;;;;;;;68.13;32.07;;;;;;;;;;5033703;28;20840;-46
2023/02/12 00:49:21;;;;;;;62.10;30.90;;;;;;;;;;5034357;28;20588;-45
2023/02/12 00:51:48;;;;;;;67.67;29.47;;;;;;;;;;5033921;28;20516;-45
2023/02/12 00:54:14;;;;;;;77.73;33.63;;;;;;;;;;5033434;28;20513;-46
2023/02/12 00:56:40;;;;;;;67.03;30.10;;;;;;;;;;5032925;28;20406;-45
2023/02/12 00:59:06;;;;;;;65.37;30.10;;;;;;;;;;5032247;28;20460;-46
2023/02/12 01:01:32;;;;;;;67.77;30.40;;;;;;;;;;5031987;28;20465;-46
2023/02/12 01:03:58;;;;;;;70.20;33.37;;;;;;;;;;5030685;28;20437;-46
2023/02/12 01:06:24;;;;;;;65.70;30.57;;;;;;;;;;5031676;28;20910;-46
2023/02/12 01:08:51;;;;;;;71.97;31.50;;;;;;;;;;5032174;28;20424;-46
2023/02/12 01:11:17;;;;;;;65.80;30.10;;;;;;;;;;5030245;28;20453;-46
2023/02/12 01:13:42;;;;;;;71.43;30.73;;;;;;;;;;5031018;28;20417;-46
2023/02/12 01:16:17;;;;;;;65.03;31.40;;;;;;;;;;5031684;28;20455;-46
2023/02/12 01:18:43;;;;;;;63.80;29.00;;;;;;;;;;5024286;28;20440;-46
2023/02/12 01:21:13;;;;;;;74.87;34.17;;;;;;;;;;5032706;28;20473;-46
2023/02/12 01:23:40;;;;;;;71.30;32.10;;;;;;;;;;5031832;28;20410;-46
2023/02/12 01:26:09;;;;;;;64.50;30.97;;;;;;;;;;5031284;28;20413;-49
2023/02/12 01:28:35;;;;;;;61.73;28.63;;;;;;;;;;5032679;28;20495;-46
2023/02/12 01:31:03;;;;;;;63.10;33.17;;;;;;;;;;5032651;28;20445;-46
2023/02/12 01:33:29;;;;;;;64.10;29.07;;;;;;;;;;5032475;28;20763;-46
2023/02/12 01:35:56;;;;;;;69.37;29.53;;;;;;;;;;5029694;28;20738;-46
2023/02/12 01:38:22;;;;;;;65.87;30.80;;;;;;;;;;5032283;28;20572;-46
2023/02/12 01:40:47;;;;;;;68.87;31.43;;;;;;;;;;5032221;28;20897;-46
2023/02/12 01:43:13;;;;;;;63.47;30.10;;;;;;;;;;5032148;28;20407;-46
2023/02/12 01:45:44;;;;;;;78.57;33.57;;;;;;;;;;5035055;28;20405;-46
2023/02/12 01:48:11;;;;;;;68.33;30.97;;;;;;;;;;5036380;28;20885;-46
2023/02/12 01:50:37;;;;;;;67.53;28.87;;;;;;;;;;5032179;28;20409;-46
2023/02/12 01:53:03;;;;;;;71.57;30.50;;;;;;;;;;5031450;28;20788;-46
2023/02/12 01:55:29;;;;;;;82.10;34.40;;;;;;;;;;5030657;28;20413;-46
2023/02/12 01:57:55;;;;;;;73.90;33.60;;;;;;;;;;5032021;28;20427;-46
2023/02/12 02:00:23;;;;;;;66.77;31.23;;;;;;;;;;5028531;28;20420;-46
2023/02/12 02:02:51;;;;;;;68.97;30.30;;;;;;;;;;5030055;28;20437;-46
2023/02/12 02:05:34;;;;;;;73.43;32.17;;;;;;;;;;5030803;28;20981;-46
2023/02/12 02:08:00;;;;;;;67.03;29.93;;;;;;;;;;5030992;28;20453;-46
2023/02/12 02:10:26;;;;;;;73.73;31.87;;;;;;;;;;5031704;28;20780;-46
2023/02/12 02:15:37;;;;;;;64.23;31.60;;;;;;;;;;5031103;28;20799;-46
2023/02/12 02:18:03;;;;;;;71.37;30.33;;;;;;;;;;5031708;28;20904;-46
2023/02/12 02:20:32;;;;;;;70.27;32.80;;;;;;;;;;5031533;28;20417;-46
2023/02/12 02:23:17;;;;;;;64.97;30.30;;;;;;;;;;5031544;28;20839;-46
2023/02/12 02:26:02;;;;;;;66.40;31.40;;;;;;;;;;5023231;28;20463;-46
2023/02/12 02:28:47;;;;;;;67.57;32.20;;;;;;;;;;5031492;28;20467;-46
2023/02/12 02:31:28;;;;;;;78.43;33.17;;;;;;;;;;5031598;28;20457;-45
2023/02/12 02:34:09;;;;;;;69.07;31.70;;;;;;;;;;5024355;28;20478;-46
2023/02/12 02:36:46;;;;;;;69.50;31.20;;;;;;;;;;5030390;28;20444;-45
2023/02/12 02:39:15;;;;;;;62.67;28.80;;;;;;;;;;5031391;28;20427;-46
2023/02/12 02:41:47;;;;;;;73.33;33.47;;;;;;;;;;5028662;28;20426;-46
2023/02/12 02:44:16;;;;;;;82.83;34.07;;;;;;;;;;5031027;28;20440;-46
2023/02/12 02:46:45;;;;;;;73.90;31.20;;;;;;;;;;5023738;28;20456;-46
2023/02/12 02:49:16;;;;;;;80.80;32.50;;;;;;;;;;5031311;28;20428;-46
2023/02/12 02:51:44;;;;;;;70.03;32.33;;;;;;;;;;5023226;28;20513;-46
2023/02/12 02:54:31;;;;;;;60.90;30.63;;;;;;;;;;5030902;28;20772;-46
2023/02/12 02:57:01;;;;;;;67.50;31.80;;;;;;;;;;5025462;28;20414;-46
2023/02/12 02:59:33;;;;;;;76.10;33.10;;;;;;;;;;5031232;28;20421;-46
2023/02/12 03:02:17;;;;;;;76.53;32.37;;;;;;;;;;5031335;28;21017;-46
2023/02/12 03:04:46;;;;;;;76.17;32.20;;;;;;;;;;5030913;28;20413;-46
2023/02/12 03:07:15;;;;;;;68.43;32.10;;;;;;;;;;5035277;28;20868;-46
2023/02/12 03:09:46;;;;;;;67.30;30.33;;;;;;;;;;5035107;28;20413;-46
2023/02/12 03:12:16;;;;;;;70.60;34.63;;;;;;;;;;5035134;28;20552;-46
2023/02/12 03:14:44;;;;;;;76.07;32.00;;;;;;;;;;5034274;28;20409;-46
2023/02/12 03:17:13;;;;;;;69.33;30.23;;;;;;;;;;5034994;28;20875;-46
2023/02/12 03:19:43;;;;;;;73.23;31.93;;;;;;;;;;5034869;28;20467;-46
2023/02/12 03:22:12;;;;;;;65.57;31.67;;;;;;;;;;5035004;28;20515;-46
2023/02/12 03:24:46;;;;;;;76.60;33.40;;;;;;;;;;5034032;28;20426;-46
2023/02/12 03:27:30;;;;;;;71.43;31.17;;;;;;;;;;5034766;28;20965;-45
2023/02/12 03:29:57;;;;;;;69.20;30.20;;;;;;;;;;5028687;28;20404;-45
2023/02/12 03:32:38;;;;;;;71.33;32.80;;;;;;;;;;5034622;28;20429;-46
2023/02/12 03:35:13;;;;;;;72.43;31.40;;;;;;;;;;5033993;28;20410;-46
2023/02/12 03:38:05;;;;;;;76.20;31.30;;;;;;;;;;5034494;28;20956;-46
2023/02/12 03:40:39;;;;;;;68.93;29.93;;;;;;;;;;5034520;28;20417;-46
2023/02/12 03:43:16;;;;;;;70.47;31.97;;;;;;;;;;5034673;28;20424;-46
2023/02/12 03:46:04;;;;;;;66.77;30.40;;;;;;;;;;5027374;28;20422;-46
2023/02/12 03:48:32;;;;;;;64.93;29.60;;;;;;;;;;5034405;28;20538;-46
2023/02/12 03:51:11;;;;;;;74.30;30.13;;;;;;;;;;5034313;28;20835;-45
2023/02/12 03:53:37;;;;;;;69.03;31.57;;;;;;;;;;5034308;28;20444;-46
2023/02/12 03:56:06;;;;;;;66.33;29.60;;;;;;;;;;5033856;28;20448;-46
2023/02/12 03:58:33;;;;;;;64.80;30.87;;;;;;;;;;5035089;28;20408;-46
2023/02/12 04:00:59;;;;;;;63.03;30.17;;;;;;;;;;5034544;28;20406;-46
2023/02/12 04:03:25;;;;;;;66.63;29.47;;;;;;;;;;5034399;28;20397;-46
2023/02/12 04:05:51;;;;;;;63.37;28.47;;;;;;;;;;5033776;28;20991;-46
2023/02/12 04:08:17;;;;;;;61.70;28.17;;;;;;;;;;5034288;28;20459;-46
2023/02/12 04:10:46;;;;;;;64.97;28.50;;;;;;;;;;5034222;28;20396;-46
2023/02/12 04:13:20;;;;;;;68.33;29.83;;;;;;;;;;5034270;28;20891;-46
2023/02/12 04:16:09;;;;;;;67.57;27.37;;;;;;;;;;5033590;28;20429;-46
2023/02/12 04:18:41;;;;;;;64.07;29.60;;;;;;;;;;5028571;28;20446;-46
2023/02/12 04:21:19;;;;;;;66.50;31.20;;;;;;;;;;5033785;28;20448;-46
2023/02/12 04:24:00;;;;;;;61.63;29.77;;;;;;;;;;5033314;28;20924;-46
2023/02/12 04:26:34;;;;;;;61.20;28.90;;;;;;;;;;5033874;28;20452;-46
2023/02/12 04:29:09;;;;;;;60.00;26.57;;;;;;;;;;5034159;28;20598;-46
2023/02/12 04:31:35;;;;;;;67.07;28.47;;;;;;;;;;5033727;28;20432;-46
2023/02/12 04:34:05;;;;;;;63.30;27.73;;;;;;;;;;5033435;28;20402;-46
2023/02/12 04:36:33;;;;;;;60.77;29.97;;;;;;;;;;5033627;28;20437;-46
2023/02/12 04:39:01;;;;;;;60.77;28.17;;;;;;;;;;5033771;28;20410;-46
2023/02/12 04:41:27;;;;;;;62.90;25.87;;;;;;;;;;5033589;28;20506;-46
2023/02/12 04:43:53;;;;;;;56.73;28.10;;;;;;;;;;5033030;28;20820;-46
2023/02/12 04:46:19;;;;;;;59.93;26.60;;;;;;;;;;5033080;28;20398;-46
2023/02/12 04:48:55;;;;;;;65.70;28.30;;;;;;;;;;5033659;28;20906;-46
2023/02/12 04:51:21;;;;;;;56.07;27.77;;;;;;;;;;5033500;28;20429;-45
2023/02/12 04:53:47;;;;;;;53.93;28.23;;;;;;;;;;5032813;28;20804;-45
2023/02/12 04:56:14;;;;;;;64.47;27.40;;;;;;;;;;5033427;28;20435;-45
2023/02/12 04:58:41;;;;;;;56.87;27.77;;;;;;;;;;5033261;28;20443;-46
2023/02/12 05:01:07;;;;;;;55.20;28.50;;;;;;;;;;5033373;28;20422;-46
2023/02/12 05:03:33;;;;;;;58.10;28.13;;;;;;;;;;5033154;28;20402;-46
2023/02/12 05:06:04;;;;;;;58.67;26.00;;;;;;;;;;5032786;28;20492;-46
2023/02/12 05:08:30;;;;;;;58.80;27.07;;;;;;;;;;5033295;28;20471;-45
2023/02/12 05:10:56;;;;;;;56.70;28.23;;;;;;;;;;5032908;28;20748;-46
2023/02/12 05:13:21;;;;;;;61.33;29.10;;;;;;;;;;5032978;28;20425;-46
2023/02/12 05:15:47;;;;;;;68.43;30.10;;;;;;;;;;5032392;28;20409;-46
2023/02/12 05:18:13;;;;;;;53.70;26.50;;;;;;;;;;5033133;28;20417;-46
2023/02/12 05:20:39;;;;;;;57.00;27.70;;;;;;;;;;5033015;28;20410;-46
2023/02/12 05:23:05;;;;;;;67.07;27.83;;;;;;;;;;5032817;28;20518;-46
2023/02/12 05:25:31;;;;;;;57.77;26.97;;;;;;;;;;5032640;28;20425;-46
2023/02/12 05:27:57;;;;;;;56.90;28.37;;;;;;;;;;5033081;28;20469;-46
2023/02/12 05:30:23;;;;;;;63.73;28.00;;;;;;;;;;5033080;28;20405;-46
2023/02/12 05:32:49;;;;;;;70.43;28.20;;;;;;;;;;5032893;28;20429;-45
2023/02/12 05:35:15;;;;;;;56.03;27.70;;;;;;;;;;5032127;28;20407;-46
2023/02/12 05:37:41;;;;;;;65.97;29.10;;;;;;;;;;5032524;28;20401;-46
2023/02/12 05:40:07;;;;;;;61.77;29.33;;;;;;;;;;5032621;28;20454;-46
2023/02/12 05:42:34;;;;;;;57.60;28.10;;;;;;;;;;5032807;28;20904;-46
2023/02/12 05:45:00;;;;;;;61.37;27.97;;;;;;;;;;5031954;28;20405;-46
2023/02/12 05:47:26;;;;;;;53.57;27.77;;;;;;;;;;5032544;28;20484;-46
2023/02/12 05:49:52;;;;;;;63.50;29.13;;;;;;;;;;5032431;28;20487;-45
2023/02/12 05:52:17;;;;;;;52.60;26.53;;;;;;;;;;5032437;28;20462;-46
2023/02/12 05:54:43;;;;;;;65.30;29.63;;;;;;;;;;5031702;28;20406;-45
2023/02/12 05:57:09;;;;;;;58.70;25.53;;;;;;;;;;5032139;28;20417;-46
2023/02/12 05:59:35;;;;;;;53.40;27.07;;;;;;;;;;5032342;28;20539;-45
2023/02/12 06:02:01;;;;;;;56.87;26.70;;;;;;;;;;5032228;28;20433;-45
2023/02/12 06:04:28;;;;;;;55.20;28.03;;;;;;;;;;5031488;28;20408;-46
2023/02/12 06:06:54;;;;;;;58.50;27.10;;;;;;;;;;5032044;28;20534;-45
2023/02/12 06:09:21;;;;;;;52.47;25.93;;;;;;;;;;5032183;28;20904;-46
2023/02/12 06:11:47;;;;;;;59.83;27.07;;;;;;;;;;5048809;22;20542;-46
2023/02/12 06:14:14;;;;;;;54.63;24.07;;;;;;;;;;5031334;28;20476;-45
2023/02/12 06:16:40;;;;;;;69.23;29.00;;;;;;;;;;5032035;28;20401;-45
2023/02/12 06:19:06;;;;;;;55.00;26.30;;;;;;;;;;5031914;28;20926;-46
2023/02/12 06:21:33;;;;;;;63.87;28.53;;;;;;;;;;5031894;28;20441;-45
2023/02/12 06:23:59;;;;;;;59.13;27.20;;;;;;;;;;5031320;28;20405;-45
2023/02/12 06:26:25;;;;;;;61.33;27.90;;;;;;;;;;5031657;28;20467;-46
2023/02/12 06:28:51;;;;;;;60.10;25.53;;;;;;;;;;5032098;28;20417;-45
2023/02/12 06:31:24;;;;;;;55.70;27.70;;;;;;;;;;5031718;28;20402;-46
2023/02/12 06:33:51;;;;;;;58.07;29.10;;;;;;;;;;5031086;28;20489;-45
2023/02/12 06:36:17;;;;;;;57.27;27.03;;;;;;;;;;5031723;28;20413;-45
2023/02/12 06:38:43;;;;;;;61.43;27.53;;;;;;;;;;5031649;28;20405;-46
2023/02/12 06:41:09;;;;;;;59.63;27.10;;;;;;;;;;5031242;28;20431;-45
2023/02/12 06:43:36;;;;;;;64.87;29.60;;;;;;;;;;5031690;28;20666;-45
2023/02/12 06:46:02;;;;;;;57.83;28.27;;;;;;;;;;5031233;28;20405;-46
2023/02/12 06:48:28;;;;;;;71.33;28.30;;;;;;;;;;5031622;28;20468;-45
2023/02/12 06:50:54;;;;;;;65.67;31.40;;;;;;;;;;5031701;28;20402;-46
2023/02/12 06:53:21;;;;;;;58.00;25.87;;;;;;;;;;5031347;28;20760;-45
2023/02/12 06:55:46;;;;;;;62.33;29.50;;;;;;;;;;5030986;28;20483;-45
2023/02/12 06:58:12;;;;;;;65.93;27.60;;;;;;;;;;5031441;28;20508;-45
2023/02/12 07:00:38;;;;;;;70.47;27.90;;;;;;;;;;5031616;28;20452;-45
2023/02/12 07:03:04;;;;;;;59.87;28.33;;;;;;;;;;5031375;28;20755;-45
2023/02/12 07:05:31;;;;;;;57.63;28.20;;;;;;;;;;5030988;28;20423;-46
2023/02/12 07:07:57;;;;;;;60.00;28.30;;;;;;;;;;5031275;28;20455;-46
2023/02/12 07:10:23;;;;;;;60.13;27.47;;;;;;;;;;5031771;28;20446;-46
2023/02/12 07:12:49;;;;;;;55.27;29.10;;;;;;;;;;5031168;28;20470;-46
2023/02/12 07:15:15;;;;;;;59.50;29.00;;;;;;;;;;5030882;28;20425;-45
2023/02/12 07:17:41;;;;;;;58.77;28.83;;;;;;;;;;5031291;28;20484;-45
2023/02/12 07:20:07;;;;;;;64.27;30.23;;;;;;;;;;5031446;28;20402;-45
2023/02/12 07:22:35;;;;;;;66.13;29.33;;;;;;;;;;5031166;28;20433;-46
2023/02/12 07:25:01;;;;;;;65.50;28.50;;;;;;;;;;5030801;28;20882;-46
2023/02/12 07:27:27;;;;;;;59.83;29.13;;;;;;;;;;5031180;28;21068;-46
2023/02/12 07:29:53;;;;;;;58.90;27.70;;;;;;;;;;5031434;28;20929;-45
2023/02/12 07:32:19;;;;;;;58.23;29.83;;;;;;;;;;5028527;28;20956;-46
2023/02/12 07:34:46;;;;;;;66.63;28.37;;;;;;;;;;5030451;28;21087;-46
2023/02/12 07:37:12;;;;;;;55.40;27.67;;;;;;;;;;5030931;28;20413;-46
2023/02/12 07:39:38;;;;;;;52.90;24.33;;;;;;;;;;5031054;28;20496;-46
2023/02/12 07:42:04;;;;;;;68.80;30.33;;;;;;;;;;5031277;28;20468;-45
2023/02/12 07:44:31;;;;;;;66.40;29.90;;;;;;;;;;5030409;28;20406;-46
2023/02/12 07:46:57;;;;;;;56.27;26.70;;;;;;;;;;5030952;28;20556;-45
2023/02/12 07:49:24;;;;;;;66.50;29.90;;;;;;;;;;5031127;28;20501;-46
2023/02/12 07:51:50;;;;;;;72.33;29.90;;;;;;;;;;5031242;28;20434;-46
2023/02/12 07:54:16;;;;;;;66.00;27.67;;;;;;;;;;5033768;28;20420;-46
2023/02/12 07:56:45;;;;;;;55.57;27.17;;;;;;;;;;5034528;28;20446;-46
2023/02/12 07:59:12;;;;;;;60.30;30.50;;;;;;;;;;5034284;28;20457;-46
2023/02/12 08:01:39;;;;;;;60.63;28.30;;;;;;;;;;5034197;28;20928;-45
2023/02/12 08:04:07;;;;;;;54.33;28.47;;;;;;;;;;5033550;28;20497;-46
2023/02/12 08:06:35;;;;;;;66.80;27.97;;;;;;;;;;5034247;28;20449;-46
2023/02/12 08:09:02;;;;;;;58.93;30.47;;;;;;;;;;5034213;28;20509;-46
2023/02/12 08:11:28;;;;;;;62.93;28.37;;;;;;;;;;5034194;28;20413;-46
2023/02/12 08:13:54;;;;;;;60.83;29.67;;;;;;;;;;5033324;28;20948;-46
2023/02/12 08:16:22;;;;;;;63.27;29.57;;;;;;;;;;5033992;28;20932;-46
2023/02/12 08:18:49;;;;;;;63.90;30.43;;;;;;;;;;5036663;28;20413;-45
2023/02/12 08:21:19;;;;;;;54.37;27.50;;;;;;;;;;5039443;28;20932;-45
2023/02/12 08:23:48;;;;;;;52.40;25.53;;;;;;;;;;5028699;28;20767;-46
2023/02/12 08:26:35;;;;;;;63.40;26.27;;;;;;;;;;5034274;28;20398;-46
2023/02/12 08:29:02;;;;;;;56.07;26.00;;;;;;;;;;5024199;28;20410;-45
2023/02/12 08:31:29;;;;;;;55.00;26.13;;;;;;;;;;5033760;28;20414;-46
2023/02/12 08:33:55;;;;;;;51.03;24.60;;;;;;;;;;5033643;28;20398;-46
2023/02/12 08:36:43;;;;;;;49.70;26.10;;;;;;;;;;5034305;28;20402;-46
2023/02/12 08:39:09;;;;;;;56.37;25.63;;;;;;;;;;5034433;28;20828;-45
2023/02/12 08:41:36;;;;;;;57.63;27.30;;;;;;;;;;5035443;28;20497;-46
2023/02/12 08:44:03;;;;;;;53.77;26.10;;;;;;;;;;5030893;28;20410;-45
2023/02/12 08:46:34;;;;;;;49.33;24.60;;;;;;;;;;5032588;28;20415;-45
2023/02/12 08:49:01;;;;;;;46.67;23.60;;;;;;;;;;5032184;28;20913;-45
2023/02/12 08:51:30;;;;;;;51.50;25.07;;;;;;;;;;5033935;28;20478;-45
2023/02/12 08:54:00;;;;;;;48.70;25.90;;;;;;;;;;5031881;28;20414;-46
2023/02/12 08:56:28;;;;;;;52.40;26.80;;;;;;;;;;5041978;28;20441;-45
2023/02/12 08:58:56;;;;;;;55.90;24.70;;;;;;;;;;5032680;28;20418;-45
2023/02/12 09:01:23;;;;;;;44.83;22.60;;;;;;;;;;5033675;28;20405;-46
2023/02/12 09:03:49;;;;;;;44.70;22.57;;;;;;;;;;5032851;28;20402;-46
2023/02/12 09:06:16;;;;;;;51.73;24.03;;;;;;;;;;5032284;28;20417;-45
2023/02/12 09:08:43;;;;;;;43.10;21.80;;;;;;;;;;5026158;28;20414;-45
2023/02/12 09:11:20;;;;;;;41.60;22.37;;;;;;;;;;5033542;28;20403;-46
2023/02/12 09:13:47;;;;;;;44.67;23.13;;;;;;;;;;5028522;28;20988;-46
2023/02/12 09:16:13;;;;;;;44.83;22.57;;;;;;;;;;5033436;28;20410;-45
2023/02/12 09:18:39;;;;;;;46.93;23.47;;;;;;;;;;5033317;28;20434;-45
2023/02/12 09:21:07;;;;;;;42.10;21.70;;;;;;;;;;5032994;28;20442;-45
2023/02/12 09:23:33;;;;;;;43.90;21.63;;;;;;;;;;5031741;28;20424;-46
2023/02/12 09:25:59;;;;;;;44.37;22.87;;;;;;;;;;5033023;28;20410;-46
2023/02/12 09:28:25;;;;;;;43.37;22.17;;;;;;;;;;5033390;28;20461;-45
2023/02/12 09:30:51;;;;;;;41.83;20.87;;;;;;;;;;5034050;28;20414;-45
2023/02/12 09:33:17;;;;;;;43.10;24.33;;;;;;;;;;5044782;28;20423;-45
2023/02/12 09:35:43;;;;;;;43.40;22.70;;;;;;;;;;5033238;28;20410;-45
2023/02/12 09:38:10;;;;;;;40.33;21.33;;;;;;;;;;5032967;28;20509;-46
2023/02/12 09:40:59;;;;;;;47.07;21.50;;;;;;;;;;5033220;28;20823;-45
2023/02/12 09:43:43;;;;;;;41.20;22.83;;;;;;;;;;5032980;28;20442;-45
2023/02/12 09:46:28;;;;;;;44.23;22.47;;;;;;;;;;5032963;28;20410;-46
2023/02/12 09:49:00;;;;;;;42.27;22.50;;;;;;;;;;5032276;28;20491;-45
2023/02/12 09:51:28;;;;;;;39.50;21.60;;;;;;;;;;5033202;28;20395;-45
2023/02/12 09:54:00;;;;;;;49.33;22.73;;;;;;;;;;5032601;28;20937;-45
2023/02/12 09:56:27;;;;;;;41.13;21.73;;;;;;;;;;5033607;28;20387;-45
2023/02/12 09:58:56;;;;;;;41.03;23.87;;;;;;;;;;5032785;28;20415;-45
2023/02/12 10:01:22;;;;;;;47.90;21.40;;;;;;;;;;5032866;28;20421;-45
2023/02/12 10:03:51;;;;;;;41.97;20.90;;;;;;;;;;5032415;28;20768;-45
2023/02/12 10:06:19;;;;;;;45.63;22.87;;;;;;;;;;5033011;28;20395;-44
2023/02/12 10:09:05;;;;;;;37.43;22.13;;;;;;;;;;5032752;28;20403;-44
2023/02/12 10:11:51;;;;;;;46.57;23.13;;;;;;;;;;5030999;28;20447;-43
2023/02/12 10:14:26;;;;;;;46.03;22.90;;;;;;;;;;5010805;28;20573;-46
2023/02/12 10:16:52;;;;;;;51.70;24.00;;;;;;;;;;5013112;28;20922;-43
2023/02/12 10:19:18;;;;;;;39.40;21.30;;;;;;;;;;5012662;28;20412;-43
2023/02/12 10:21:54;;;;;;;43.93;23.67;;;;;;;;;;5011681;28;20517;-45
2023/02/12 10:24:30;;;;;;;40.73;21.43;;;;;;;;;;5011820;28;20421;-43
2023/02/12 10:26:58;;;;;;;34.00;20.30;;;;;;;;;;5011298;28;20454;-47
2023/02/12 10:29:28;;;;;;;41.13;21.43;;;;;;;;;;5030525;28;20887;-43
2023/02/12 10:31:54;;;;;;;38.53;20.33;;;;;;;;;;5031510;28;20437;-44
2023/02/12 10:34:23;;;;;;;42.37;21.40;;;;;;;;;;5031115;28;20478;-43
2023/02/12 10:36:52;;;;;;;35.17;21.20;;;;;;;;;;5031566;28;20408;-44
2023/02/12 10:39:21;;;;;;;39.67;20.73;;;;;;;;;;5031924;28;20405;-44
2023/02/12 10:42:06;;;;;;;37.70;21.97;;;;;;;;;;5031420;28;20529;-45
2023/02/12 10:44:32;;;;;;;36.07;19.87;;;;;;;;;;5030949;28;20407;-44
2023/02/12 10:46:58;;;;;;;36.47;21.60;;;;;;;;;;5031434;28;20510;-44
2023/02/12 10:49:24;;;;;;;36.60;20.20;;;;;;;;;;5031502;28;20400;-45
2023/02/12 10:51:56;;;;;;;39.80;22.27;;;;;;;;;;5031478;28;20462;-48
2023/02/12 10:54:31;;;;;;;42.53;20.93;;;;;;;;;;5031116;28;20440;-43
2023/02/12 10:56:57;;;;;;;40.00;21.43;;;;;;;;;;5031491;28;20409;-43
2023/02/12 10:59:23;;;;;;;30.57;18.17;;;;;;;;;;5031257;28;20819;-43
2023/02/12 11:01:50;;;;;;;35.70;20.10;;;;;;;;;;5028379;28;20546;-47
2023/02/12 11:04:19;;;;;;;30.37;19.00;;;;;;;;;;5029954;28;20823;-45
2023/02/12 11:06:56;;;;;;;36.47;19.50;;;;;;;;;;5030862;28;21066;-45
2023/02/12 11:09:35;;;;;;;34.63;19.30;;;;;;;;;;5030865;28;20424;-45
2023/02/12 11:12:01;;;;;;;47.37;21.30;;;;;;;;;;5035543;28;20447;-43
2023/02/12 11:14:28;;;;;;;39.40;20.07;;;;;;;;;;5034639;28;20437;-43
2023/02/12 11:16:55;;;;;;;40.60;20.90;;;;;;;;;;5030625;28;20908;-46
2023/02/12 11:19:25;;;;;;;37.23;20.47;;;;;;;;;;5031148;28;20426;-45
2023/02/12 11:21:52;;;;;;;34.87;19.40;;;;;;;;;;5037229;28;20455;-45
2023/02/12 11:24:20;;;;;;;33.43;17.30;;;;;;;;;;5046554;28;20435;-45
2023/02/12 11:26:46;;;;;;;37.63;19.60;;;;;;;;;;5033539;28;20510;-45
2023/02/12 11:29:20;;;;;;;37.97;20.13;;;;;;;;;;5054689;28;20418;-45
2023/02/12 11:32:12;;;;;;;35.60;19.40;;;;;;;;;;5035404;28;20432;-45
2023/02/12 11:34:38;;;;;;;37.80;19.60;;;;;;;;;;5032812;28;20436;-45
2023/02/12 11:37:13;;;;;;;36.07;19.70;;;;;;;;;;5034944;28;20408;-45
2023/02/12 11:39:39;;;;;;;35.60;18.80;;;;;;;;;;5034537;28;20418;-45
2023/02/12 11:42:16;;;;;;;33.63;19.70;;;;;;;;;;5034324;28;20442;-45
2023/02/12 11:44:43;;;;;;;42.07;20.70;;;;;;;;;;5033568;28;20470;-45
2023/02/12 11:47:16;;;;;;;36.30;19.87;;;;;;;;;;5034179;28;20455;-45
2023/02/12 11:49:48;;;;;;;41.10;20.67;;;;;;;;;;5034284;28;20731;-45
2023/02/12 11:52:24;;;;;;;32.80;19.03;;;;;;;;;;5034310;28;20503;-45
2023/02/12 11:54:51;;;;;;;38.03;19.37;;;;;;;;;;5033765;28;20767;-45
2023/02/12 11:57:35;;;;;;;38.43;20.07;;;;;;;;;;5034424;28;20763;-45
2023/02/12 12:00:03;;;;;;;39.23;20.37;;;;;;;;;;5014433;28;20399;-45
2023/02/12 12:02:37;;;;;;;34.63;19.97;;;;;;;;;;5032324;28;20436;-45
2023/02/12 12:05:07;;;;;;;39.73;22.27;;;;;;;;;;5033454;28;20919;-45
2023/02/12 12:07:34;;;;;;;40.80;21.17;;;;;;;;;;5034031;28;20506;-45
2023/02/12 12:10:07;;;;;;;41.87;21.37;;;;;;;;;;5033912;28;20409;-45
2023/02/12 12:12:38;;;;;;;37.77;19.97;;;;;;;;;;5033594;28;20454;-45
2023/02/12 12:21:16;;;;;;;35.63;20.07;;;;;;;;;;5013103;28;20478;-44
2023/02/12 12:23:42;;;;;;;36.13;19.50;;;;;;;;;;5033116;28;20478;-43
2023/02/12 12:26:23;;;;;;;37.10;19.70;;;;;;;;;;5033371;28;20451;-42
2023/02/12 12:29:10;;;;;;;36.53;18.93;;;;;;;;;;5033399;28;20425;-43
2023/02/12 12:31:38;;;;;;;36.27;19.17;;;;;;;;;;5033737;28;20526;-45
2023/02/12 12:34:16;;;;;;;34.20;17.53;;;;;;;;;;5034740;28;20404;-44
2023/02/12 12:36:45;;;;;;;34.43;19.67;;;;;;;;;;5052855;28;20922;-42
2023/02/12 12:39:25;;;;;;;37.17;21.20;;;;;;;;;;5032718;28;20404;-44
2023/02/12 12:41:51;;;;;;;34.70;18.80;;;;;;;;;;5032969;28;20436;-44
2023/02/12 12:44:36;;;;;;;30.63;17.20;;;;;;;;;;5032579;28;20416;-46
2023/02/12 12:47:11;;;;;;;35.17;17.77;;;;;;;;;;5033208;28;20505;-43
2023/02/12 12:49:53;;;;;;;42.07;20.40;;;;;;;;;;5033669;28;20452;-46
2023/02/12 12:52:31;;;;;;;33.17;17.80;;;;;;;;;;5032977;28;20438;-45
2023/02/12 12:55:00;;;;;;;34.70;17.67;;;;;;;;;;5032434;28;20471;-45
2023/02/12 12:57:35;;;;;;;41.90;20.87;;;;;;;;;;5033142;28;20419;-45
2023/02/12 13:00:01;;;;;;;33.57;18.67;;;;;;;;;;5033125;28;20448;-46
2023/02/12 13:02:27;;;;;;;33.67;19.03;;;;;;;;;;5032673;28;20467;-45
2023/02/12 13:04:53;;;;;;;38.00;19.50;;;;;;;;;;5031610;28;20419;-45
2023/02/12 13:07:33;;;;;;;35.60;19.90;;;;;;;;;;5032531;28;20456;-45
2023/02/12 13:10:19;;;;;;;39.60;18.07;;;;;;;;;;5032794;28;20408;-45
2023/02/12 13:12:45;;;;;;;36.17;18.97;;;;;;;;;;5032700;28;20953;-45
2023/02/12 13:15:21;;;;;;;37.70;20.13;;;;;;;;;;5031863;28;20407;-45
2023/02/12 13:17:49;;;;;;;37.90;19.37;;;;;;;;;;5033012;28;20958;-46
2023/02/12 13:20:22;;;;;;;34.83;18.40;;;;;;;;;;5032911;28;20413;-45
2023/02/12 13:22:57;;;;;;;35.10;18.30;;;;;;;;;;5032665;28;20480;-45
2023/02/12 13:25:26;;;;;;;30.87;18.10;;;;;;;;;;5032055;28;20407;-45
2023/02/12 13:27:55;;;;;;;34.73;19.07;;;;;;;;;;5032506;28;20452;-45
2023/02/12 13:30:32;;;;;;;36.20;19.17;;;;;;;;;;5032673;28;20403;-43
2023/02/12 13:33:20;;;;;;;40.43;20.90;;;;;;;;;;5032684;28;20844;-46
2023/02/12 13:35:49;;;;;;;40.07;20.00;;;;;;;;;;5032054;28;20400;-42
2023/02/12 13:38:18;;;;;;;35.63;19.27;;;;;;;;;;5032461;28;20408;-46
2023/02/12 13:40:45;;;;;;;37.13;19.93;;;;;;;;;;5032741;28;20416;-43
2023/02/12 13:43:46;;;;;;;36.97;19.70;;;;;;;;;;5032456;28;20906;-43
2023/02/12 13:46:31;;;;;;;32.93;20.27;;;;;;;;;;4971326;28;20462;-44
2023/02/12 13:49:06;;;;;;;36.80;18.93;;;;;;;;;;5028038;28;21049;-43
2023/02/12 13:51:47;;;;;;;34.23;18.97;;;;;;;;;;5032484;28;20490;-43
2023/02/12 13:54:31;;;;;;;34.30;17.67;;;;;;;;;;5031689;28;20408;-43
2023/02/12 13:56:59;;;;;;;35.97;17.63;;;;;;;;;;5032156;28;20409;-43
2023/02/12 13:59:31;;;;;;;30.13;17.40;;;;;;;;;;5032153;28;20414;-43
2023/02/12 14:02:04;;;;;;;30.07;17.70;;;;;;;;;;5032211;28;20426;-43
2023/02/12 14:04:32;;;;;;;34.07;17.60;;;;;;;;;;5032215;28;20487;-46
2023/02/12 14:07:09;;;;;;;34.30;18.00;;;;;;;;;;5032068;28;20990;-46
2023/02/12 14:09:42;;;;;;;33.80;19.03;;;;;;;;;;5031790;28;21252;-46
2023/02/12 14:12:10;;;;;;;35.37;18.57;;;;;;;;;;5032039;28;20838;-45
2023/02/12 14:14:38;;;;;;;33.90;19.93;;;;;;;;;;5031070;28;20411;-45
2023/02/12 14:17:23;;;;;;;38.60;19.20;;;;;;;;;;5031966;28;20402;-46
2023/02/12 14:19:51;;;;;;;32.43;18.53;;;;;;;;;;5031503;28;20445;-47
2023/02/12 14:22:25;;;;;;;37.20;18.57;;;;;;;;;;5031373;28;20513;-47
2023/02/12 14:24:52;;;;;;;35.33;18.97;;;;;;;;;;5030932;28;20416;-45
2023/02/12 14:27:18;;;;;;;32.17;17.27;;;;;;;;;;5031663;28;20896;-47
2023/02/12 14:30:00;;;;;;;30.60;17.33;;;;;;;;;;5031874;28;20490;-46
2023/02/12 14:32:44;;;;;;;32.13;16.90;;;;;;;;;;5031463;28;21043;-48
2023/02/12 14:35:26;;;;;;;32.13;18.50;;;;;;;;;;5030922;28;20405;-46
2023/02/12 14:37:53;;;;;;;28.00;16.03;;;;;;;;;;5031565;28;20926;-46
2023/02/12 14:40:43;;;;;;;33.10;17.20;;;;;;;;;;5031557;28;20462;-46